Time;durP1;ratioP1;P1;durP2;ratioP2;P2;SDS_P1;SDS_P2;PMS_P1;PMS_P2;Temp;Humidity;BMP_temperature;BMP_pressure;BME280_temperature;BME280_humidity;BME280_pressure;Samples;Min_cycle;Max_cycle;Signal;HPM_P1;HPM_P2
2023/10/22 00:00:46;;;;;;;;;;;;;;;11.68;100.00;99765.97;5012438;28;19925;-69
2023/10/22 00:03:14;;;;;;;;;;;;;;;11.64;100.00;99771.47;4995678;28;20597;-70
2023/10/22 00:05:41;;;;;;;;;;;;;;;11.63;100.00;99764.53;4988053;28;19968;-71
2023/10/22 00:08:08;;;;;;;;;;;;;;;11.63;100.00;99769.81;5006069;28;19979;-69
2023/10/22 00:10:35;;;;;;;;;;;;;;;11.64;100.00;99779.38;5020516;28;19999;-70
2023/10/22 00:13:02;;;;;;;;;;;;;;;11.65;100.00;99783.69;4985262;28;19937;-70
2023/10/22 00:15:30;;;;;;;;;;;;;;;11.66;100.00;99790.66;5001625;28;20373;-70
2023/10/22 00:17:58;;;;;;;;;;;;;;;11.68;100.00;99787.06;5005687;28;19922;-69
2023/10/22 00:20:27;;;;;;;;;;;;;;;11.68;100.00;99785.28;5004671;28;19921;-68
2023/10/22 00:22:54;;;;;;;;;;;;;;;11.68;100.00;99787.06;5004811;28;20948;-68
2023/10/22 00:25:21;;;;;;;;;;;;;;;11.68;100.00;99794.97;5005654;28;19972;-69
2023/10/22 00:27:51;;;;;;;;;;;;;;;11.66;100.00;99793.31;5006277;28;19967;-69
2023/10/22 00:30:18;;;;;;;;;;;;;;;11.69;100.00;99794.00;5008871;28;19921;-70
2023/10/22 00:32:46;;;;;;;;;;;;;;;11.69;100.00;99791.38;5005234;28;19921;-70
2023/10/22 00:35:13;;;;;;;;;;;;;;;11.66;100.00;99787.16;5006138;28;19929;-70
2023/10/22 00:37:41;;;;;;;;;;;;;;;11.64;100.00;99784.66;5004934;28;19972;-69
2023/10/22 00:40:08;;;;;;;;;;;;;;;11.64;100.00;99794.38;5006266;28;19949;-69
2023/10/22 00:42:35;;;;;;;;;;;;;;;11.62;100.00;99796.28;5008196;28;20372;-69
2023/10/22 00:45:03;;;;;;;;;;;;;;;11.60;100.00;99803.47;4990751;28;19921;-69
2023/10/22 00:47:31;;;;;;;;;;;;;;;11.58;100.00;99794.84;5021470;28;19922;-70
2023/10/22 00:49:58;;;;;;;;;;;;;;;11.57;100.00;99794.00;5001505;28;19956;-69
2023/10/22 00:52:25;;;;;;;;;;;;;;;11.59;100.00;99789.44;5012405;28;19921;-69
2023/10/22 00:54:52;;;;;;;;;;;;;;;11.59;100.00;99784.19;4988201;28;19921;-69
2023/10/22 00:57:19;;;;;;;;;;;;;;;11.62;100.00;99796.28;5006799;28;19922;-69
2023/10/22 00:59:47;;;;;;;;;;;;;;;11.63;100.00;99797.97;5018963;28;19929;-69
2023/10/22 01:02:15;;;;;;;;;;;;;;;11.52;100.00;99805.84;5005228;28;19929;-70
2023/10/22 01:04:42;;;;;;;;;;;;;;;11.46;100.00;99809.78;5018932;28;20044;-69
2023/10/22 01:07:09;;;;;;;;;;;;;;;11.47;100.00;99815.91;5004184;28;19992;-70
2023/10/22 01:09:36;;;;;;;;;;;;;;;11.47;100.00;99806.19;5021752;28;19929;-70
2023/10/22 01:12:04;;;;;;;;;;;;;;;11.50;100.00;99803.34;5001376;28;19953;-70
2023/10/22 01:14:33;;;;;;;;;;;;;;;11.54;100.00;99802.16;5019163;28;20354;-72
2023/10/22 01:17:00;;;;;;;;;;;;;;;11.57;100.00;99791.38;5020582;28;19968;-71
2023/10/22 01:19:27;;;;;;;;;;;;;;;11.60;100.00;99796.41;5004991;28;19980;-71
2023/10/22 01:21:54;;;;;;;;;;;;;;;11.64;100.00;99800.47;4985495;28;20384;-70
2023/10/22 01:24:21;;;;;;;;;;;;;;;11.63;100.00;99793.53;5002043;28;19992;-70
2023/10/22 01:26:52;;;;;;;;;;;;;;;11.62;100.00;99785.75;5006531;28;19921;-71
2023/10/22 01:29:21;;;;;;;;;;;;;;;11.64;100.00;99789.94;5004464;28;20004;-72
2023/10/22 01:31:48;;;;;;;;;;;;;;;11.66;100.00;99795.06;5005323;28;19980;-71
2023/10/22 01:34:15;;;;;;;;;;;;;;;11.68;100.00;99789.72;4994301;28;20518;-70
2023/10/22 01:36:42;;;;;;;;;;;;;;;11.70;100.00;99787.78;5007333;28;19965;-70
2023/10/22 01:39:14;;;;;;;;;;;;;;;11.73;100.00;99780.47;5002788;28;19925;-70
2023/10/22 01:41:41;;;;;;;;;;;;;;;11.77;100.00;99765.25;5020414;28;19980;-71
2023/10/22 01:44:08;;;;;;;;;;;;;;;11.80;100.00;99757.13;5005621;28;19929;-70
2023/10/22 01:49:53;;;;;;;;;;;;;;;11.83;100.00;99759.53;5005902;28;20403;-71
2023/10/22 01:52:21;;;;;;;;;;;;;;;11.82;100.00;99771.88;5023094;28;20274;-69
2023/10/22 01:54:49;;;;;;;;;;;;;;;11.81;100.00;99774.63;5003828;28;19925;-69
2023/10/22 01:57:16;;;;;;;;;;;;;;;11.78;100.00;99772.22;5022533;28;19921;-71
2023/10/22 01:59:44;;;;;;;;;;;;;;;11.76;100.00;99771.50;5021739;28;19929;-72
2023/10/22 02:02:13;;;;;;;;;;;;;;;11.77;100.00;99778.44;5005462;28;19925;-72
2023/10/22 02:04:42;;;;;;;;;;;;;;;11.78;100.00;99782.75;5003394;28;19928;-71
2023/10/22 02:07:13;;;;;;;;;;;;;;;11.81;100.00;99780.72;5004644;28;20430;-72
2023/10/22 02:09:41;;;;;;;;;;;;;;;11.84;100.00;99769.13;5001648;28;19972;-72
2023/10/22 02:12:08;;;;;;;;;;;;;;;11.86;100.00;99777.78;5014030;28;20004;-69
2023/10/22 02:14:36;;;;;;;;;;;;;;;11.86;100.00;99777.78;4994773;28;20387;-70
2023/10/22 02:17:04;;;;;;;;;;;;;;;11.83;100.00;99781.47;5007167;28;19922;-69
2023/10/22 02:19:31;;;;;;;;;;;;;;;11.82;100.00;99784.22;5011695;28;20435;-70
2023/10/22 02:22:00;;;;;;;;;;;;;;;11.80;100.00;99799.31;5026229;28;19928;-69
2023/10/22 02:24:28;;;;;;;;;;;;;;;11.76;100.00;99793.44;5024636;28;19922;-69
2023/10/22 02:26:56;;;;;;;;;;;;;;;11.76;100.00;99800.50;5006335;28;19929;-69
2023/10/22 02:29:24;;;;;;;;;;;;;;;11.72;100.00;99799.91;5025753;28;19925;-71
2023/10/22 02:31:52;;;;;;;;;;;;;;;11.71;100.00;99816.69;5010617;28;19922;-69
2023/10/22 02:34:20;;;;;;;;;;;;;;;11.71;100.00;99821.97;5004070;28;20434;-71
2023/10/22 02:36:47;;;;;;;;;;;;;;;11.68;100.00;99811.63;5025678;28;19929;-69
2023/10/22 02:39:15;;;;;;;;;;;;;;;11.65;100.00;99817.97;5008023;28;19925;-69
2023/10/22 02:41:47;;;;;;;;;;;;;;;11.64;100.00;99821.56;5012648;28;19948;-71
2023/10/22 02:44:15;;;;;;;;;;;;;;;11.66;100.00;99827.59;5010557;28;20411;-69
2023/10/22 02:46:43;;;;;;;;;;;;;;;11.66;100.00;99834.63;5010123;28;19927;-68
2023/10/22 02:49:12;;;;;;;;;;;;;;;11.68;100.00;99835.38;5006808;28;19921;-68
2023/10/22 02:51:42;;;;;;;;;;;;;;;11.72;100.00;99835.97;5006152;28;19925;-68
2023/10/22 02:54:10;;;;;;;;;;;;;;;11.76;100.00;99840.06;5008892;28;19925;-73
2023/10/22 02:56:44;;;;;;;;;;;;;;;11.80;100.00;99838.88;5021437;28;19925;-71
2023/10/22 02:59:12;;;;;;;;;;;;;;;11.86;100.00;99841.91;5005456;28;19925;-70
2023/10/22 03:01:39;;;;;;;;;;;;;;;11.86;100.00;99828.72;5005771;28;19929;-69
2023/10/22 03:04:10;;;;;;;;;;;;;;;11.88;100.00;99824.16;5003503;28;19929;-70
2023/10/22 03:06:39;;;;;;;;;;;;;;;11.94;100.00;99827.28;5009130;28;19928;-69
2023/10/22 03:09:07;;;;;;;;;;;;;;;11.97;100.00;99841.06;5006969;28;20003;-70
2023/10/22 03:11:34;;;;;;;;;;;;;;;11.97;100.00;99832.31;5022015;28;19922;-70
2023/10/22 03:14:01;;;;;;;;;;;;;;;11.96;100.00;99828.00;5004653;28;19929;-69
2023/10/22 03:16:29;;;;;;;;;;;;;;;11.98;100.00;99823.44;5025661;28;19983;-70
2023/10/22 03:18:56;;;;;;;;;;;;;;;12.00;100.00;99832.09;5004974;28;19961;-68
2023/10/22 03:21:25;;;;;;;;;;;;;;;11.99;100.00;99836.53;5003798;28;20319;-69
2023/10/22 03:23:52;;;;;;;;;;;;;;;11.98;100.00;99839.25;4987744;28;20020;-69
2023/10/22 03:26:19;;;;;;;;;;;;;;;11.96;100.00;99842.03;5005987;28;19922;-70
2023/10/22 03:28:47;;;;;;;;;;;;;;;11.95;100.00;99844.78;5007733;28;20268;-70
2023/10/22 03:31:15;;;;;;;;;;;;;;;11.96;100.00;99846.47;4997929;28;20423;-70
2023/10/22 03:33:43;;;;;;;;;;;;;;;11.92;100.00;99848.50;5023086;28;20018;-70
2023/10/22 03:36:11;;;;;;;;;;;;;;;11.89;100.00;99854.88;5005419;28;19968;-71
2023/10/22 03:38:39;;;;;;;;;;;;;;;11.86;100.00;99852.44;5004795;28;20066;-73
2023/10/22 03:41:06;;;;;;;;;;;;;;;11.84;100.00;99848.22;5008506;28;19921;-70
2023/10/22 03:43:37;;;;;;;;;;;;;;;11.84;100.00;99858.78;5008953;28;19929;-69
2023/10/22 03:46:04;;;;;;;;;;;;;;;11.79;100.00;99856.47;5002895;28;19926;-70
2023/10/22 03:48:32;;;;;;;;;;;;;;;11.79;100.00;99856.47;5002205;28;20202;-71
2023/10/22 03:51:00;;;;;;;;;;;;;;;11.81;100.00;99845.81;5004804;28;19952;-70
2023/10/22 03:53:27;;;;;;;;;;;;;;;11.83;100.00;99851.84;5012769;28;19936;-71
2023/10/22 03:55:55;;;;;;;;;;;;;;;11.84;100.00;99853.50;5002505;28;19925;-72
2023/10/22 03:58:25;;;;;;;;;;;;;;;11.85;100.00;99861.31;5002725;28;20008;-70
2023/10/22 04:00:54;;;;;;;;;;;;;;;11.83;100.00;99863.22;4998413;28;20456;-70
2023/10/22 04:03:23;;;;;;;;;;;;;;;11.80;100.00;99866.09;5006389;28;19925;-70
2023/10/22 04:05:55;;;;;;;;;;;;;;;11.77;100.00;99865.47;5009477;28;19929;-70
2023/10/22 04:08:26;;;;;;;;;;;;;;;11.75;100.00;99860.31;5000003;28;19937;-71
2023/10/22 04:10:55;;;;;;;;;;;;;;;11.75;100.00;99859.47;4990153;28;20004;-71
2023/10/22 04:13:22;;;;;;;;;;;;;;;11.73;100.00;99862.22;5013111;28;19921;-70
2023/10/22 04:25:44;;;;;;;;;;;;;;;11.65;100.00;99868.06;5008750;28;20012;-72
2023/10/22 04:28:12;;;;;;;;;;;;;;;11.65;100.00;99865.44;5008543;28;19937;-72
2023/10/22 04:30:39;;;;;;;;;;;;;;;11.65;100.00;99868.06;4998887;28;19933;-72
2023/10/22 04:33:07;;;;;;;;;;;;;;;11.68;100.00;99868.81;5006361;28;20008;-72
2023/10/22 04:35:35;;;;;;;;;;;;;;;11.66;100.00;99864.50;5005142;28;19929;-73
2023/10/22 04:38:21;;;;;;;;;;;;;;;11.67;100.00;99867.97;5005473;28;20022;-71
2023/10/22 04:41:44;;;;;;;;;;;;;;;11.69;100.00;99870.47;5007299;28;20015;-71
2023/10/22 04:45:06;;;;;;;;;;;;;;;11.66;100.00;99872.41;5002725;28;19940;-72
2023/10/22 04:48:28;;;;;;;;;;;;;;;11.64;100.00;99873.47;5016315;28;19924;-73
2023/10/22 04:51:50;;;;;;;;;;;;;;;11.61;100.00;99876.31;5005945;28;20279;-73
2023/10/22 04:55:13;;;;;;;;;;;;;;;11.59;100.00;99876.44;5008415;28;20158;-71
2023/10/22 04:58:35;;;;;;;;;;;;;;;11.58;100.00;99877.41;5001730;28;19924;-72
2023/10/22 05:01:57;;;;;;;;;;;;;;;11.55;100.00;99879.41;5006919;28;19927;-74
2023/10/22 05:05:23;;;;;;;;;;;;;;;11.51;100.00;99872.69;5009574;28;20022;-73
2023/10/22 05:08:46;;;;;;;;;;;;;;;11.50;100.00;99876.28;5005195;28;19944;-72
2023/10/22 05:12:08;;;;;;;;;;;;;;;11.49;100.00;99874.63;5005557;28;20382;-73
2023/10/22 05:15:31;;;;;;;;;;;;;;;11.48;100.00;99881.66;5008988;28;20500;-71
2023/10/22 05:18:53;;;;;;;;;;;;;;;11.49;100.00;99879.91;5003814;28;19967;-72
